createdAt,value
2024-03-05T00:00:41.039Z,27.20
2024-03-05T00:03:08.147Z,29.77
2024-03-05T00:05:35.190Z,25.83
2024-03-05T00:08:04.097Z,30.08
2024-03-05T00:10:33.549Z,33.00
2024-03-05T00:13:00.823Z,28.23
2024-03-05T00:15:27.999Z,29.38
2024-03-05T00:17:55.312Z,31.08
2024-03-05T00:20:22.409Z,36.88
2024-03-05T00:22:50.024Z,28.00
2024-03-05T00:25:17.474Z,26.48
2024-03-05T00:27:45.960Z,29.45
2024-03-05T00:30:15.299Z,31.63
2024-03-05T00:32:43.010Z,30.98
2024-03-05T00:35:11.015Z,31.38
2024-03-05T00:37:39.001Z,32.58
2024-03-05T00:40:09.614Z,30.25
2024-03-05T00:42:37.292Z,28.05
2024-03-05T00:45:08.347Z,29.00
2024-03-05T00:47:36.467Z,29.85
2024-03-05T00:50:08.148Z,35.15
2024-03-05T00:52:35.337Z,35.42
2024-03-05T00:55:02.628Z,38.45
2024-03-05T00:57:30.408Z,35.95
2024-03-05T00:59:57.870Z,32.88
2024-03-05T01:02:26.535Z,37.50
2024-03-05T01:04:56.315Z,31.52
2024-03-05T01:07:23.612Z,34.42
2024-03-05T01:09:50.930Z,35.45
2024-03-05T01:12:18.061Z,33.85
2024-03-05T01:14:45.904Z,33.25
2024-03-05T01:17:13.995Z,36.35
2024-03-05T01:19:42.587Z,35.35
2024-03-05T01:22:09.580Z,37.67
2024-03-05T01:24:36.789Z,37.58
2024-03-05T01:27:06.167Z,36.33
2024-03-05T01:29:33.475Z,34.33
2024-03-05T01:32:02.988Z,31.52
2024-03-05T01:34:30.527Z,32.85
2024-03-05T01:36:59.256Z,39.92
2024-03-05T01:39:28.139Z,35.72
2024-03-05T01:41:55.327Z,36.42
2024-03-05T01:44:23.295Z,39.35
2024-03-05T01:46:54.761Z,38.97
2024-03-05T01:49:23.333Z,39.25
2024-03-05T01:51:50.825Z,37.38
2024-03-05T01:54:19.609Z,38.83
2024-03-05T01:56:49.899Z,39.13
2024-03-05T01:59:18.588Z,39.28
2024-03-05T02:01:46.625Z,36.53
2024-03-05T02:04:13.977Z,41.83
2024-03-05T02:06:43.317Z,37.60
2024-03-05T02:09:12.567Z,43.15
2024-03-05T02:11:52.546Z,41.58
2024-03-05T02:14:24.432Z,45.00
2024-03-05T02:16:52.086Z,39.00
2024-03-05T02:19:19.394Z,39.53
2024-03-05T02:21:48.270Z,37.25
2024-03-05T02:24:15.779Z,41.63
2024-03-05T02:26:43.105Z,42.08
2024-03-05T02:29:10.503Z,49.35
2024-03-05T02:31:37.753Z,44.28
2024-03-05T02:34:06.258Z,41.67
2024-03-05T02:36:33.408Z,43.03
2024-03-05T02:39:01.893Z,47.20
2024-03-05T02:41:28.959Z,44.25
2024-03-05T02:43:57.582Z,45.47
2024-03-05T02:46:25.973Z,46.30
2024-03-05T02:48:53.074Z,49.88
2024-03-05T02:51:20.109Z,48.35
2024-03-05T02:53:47.565Z,46.78
2024-03-05T02:56:16.282Z,44.15
2024-03-05T02:58:43.661Z,38.08
2024-03-05T03:01:12.191Z,41.63
2024-03-05T03:03:39.621Z,42.13
2024-03-05T03:06:06.890Z,40.88
2024-03-05T03:08:34.403Z,48.05
2024-03-05T03:11:01.782Z,48.83
2024-03-05T03:13:30.878Z,48.47
2024-03-05T03:15:57.839Z,48.58
2024-03-05T03:18:24.838Z,45.13
2024-03-05T03:20:52.140Z,47.58
2024-03-05T03:23:19.650Z,49.00
2024-03-05T03:25:46.878Z,44.67
2024-03-05T03:28:14.201Z,45.78
2024-03-05T03:30:42.759Z,42.97
2024-03-05T03:33:09.946Z,51.10
2024-03-05T03:35:37.073Z,50.67
2024-03-05T03:38:05.093Z,47.88
2024-03-05T03:40:35.029Z,49.15
2024-03-05T03:43:02.517Z,50.92
2024-03-05T03:45:29.565Z,48.17
2024-03-05T03:47:59.154Z,45.42
2024-03-05T03:50:26.380Z,45.70
2024-03-05T03:52:53.418Z,48.97
2024-03-05T03:55:20.600Z,56.20
2024-03-05T03:57:48.632Z,46.92
2024-03-05T04:00:19.931Z,45.33
2024-03-05T04:02:50.401Z,46.20
2024-03-05T04:05:18.822Z,46.13
2024-03-05T04:07:45.845Z,44.85
2024-03-05T04:10:13.276Z,47.05
2024-03-05T04:12:40.514Z,46.63
2024-03-05T04:15:13.538Z,46.78
2024-03-05T04:17:41.198Z,48.00
2024-03-05T04:20:10.663Z,45.50
2024-03-05T04:22:40.769Z,49.17
2024-03-05T04:25:08.912Z,46.38
2024-03-05T04:27:42.628Z,56.70
2024-03-05T04:30:13.585Z,49.25
2024-03-05T04:35:17.270Z,50.67
2024-03-05T04:37:46.707Z,48.65
2024-03-05T04:40:14.344Z,53.55
2024-03-05T04:42:41.296Z,48.72
2024-03-05T04:45:09.312Z,46.05
2024-03-05T04:47:37.649Z,47.97
2024-03-05T04:50:06.372Z,50.38
2024-03-05T04:52:34.741Z,41.85
2024-03-05T04:55:04.053Z,49.30
2024-03-05T04:57:31.086Z,45.67
2024-03-05T04:59:59.248Z,62.33
2024-03-05T05:02:26.278Z,52.28
2024-03-05T05:04:53.295Z,54.10
2024-03-05T05:07:24.544Z,50.38
2024-03-05T05:09:51.752Z,48.00
2024-03-05T05:12:20.109Z,49.45
2024-03-05T05:14:47.169Z,48.95
2024-03-05T05:17:15.000Z,48.05
2024-03-05T05:19:42.337Z,45.28
2024-03-05T05:22:09.347Z,48.75
2024-03-05T05:24:37.552Z,46.22
2024-03-05T05:27:07.831Z,46.05
2024-03-05T05:29:40.358Z,48.42
2024-03-05T05:32:09.634Z,41.03
2024-03-05T05:34:37.222Z,44.88
2024-03-05T05:37:06.032Z,46.30
2024-03-05T05:39:33.840Z,45.42
2024-03-05T05:42:01.262Z,48.63
2024-03-05T05:44:28.261Z,42.97
2024-03-05T05:46:57.533Z,49.60
2024-03-05T05:49:24.679Z,51.55
2024-03-05T05:51:54.838Z,47.53
2024-03-05T05:54:23.409Z,48.33
2024-03-05T05:56:50.552Z,50.28
2024-03-05T05:59:18.847Z,46.03
2024-03-05T06:01:46.465Z,55.20
2024-03-05T06:04:16.785Z,46.42
2024-03-05T06:06:44.486Z,50.55
2024-03-05T06:09:11.462Z,49.33
2024-03-05T06:11:39.276Z,48.80
2024-03-05T06:14:07.765Z,49.08
2024-03-05T06:16:35.598Z,49.60
2024-03-05T06:19:05.444Z,51.28
2024-03-05T06:21:33.965Z,51.25
2024-03-05T06:24:01.142Z,47.75
2024-03-05T06:26:29.027Z,43.70
2024-03-05T06:28:56.085Z,44.55
2024-03-05T06:31:25.128Z,42.35
2024-03-05T06:33:52.428Z,42.35
2024-03-05T06:36:20.570Z,47.28
2024-03-05T06:38:48.944Z,46.83
2024-03-05T06:41:16.479Z,41.25
2024-03-05T06:43:44.055Z,44.30
2024-03-05T06:46:11.246Z,46.90
2024-03-05T06:48:43.279Z,45.75
2024-03-05T06:51:27.775Z,45.45
2024-03-05T06:54:14.732Z,52.95
2024-03-05T06:56:42.355Z,56.22
2024-03-05T06:59:11.627Z,69.53
2024-03-05T07:01:38.982Z,56.78
2024-03-05T07:04:07.896Z,75.10
2024-03-05T07:06:35.897Z,65.63
2024-03-05T07:09:04.472Z,55.42
2024-03-05T07:11:31.598Z,53.20
2024-03-05T07:13:59.380Z,58.85
2024-03-05T07:16:27.030Z,58.10
2024-03-05T07:18:54.854Z,58.13
2024-03-05T07:21:24.236Z,62.97
2024-03-05T07:23:52.837Z,54.22
2024-03-05T07:26:22.053Z,62.72
2024-03-05T07:28:49.405Z,62.63
2024-03-05T07:31:18.508Z,52.50
2024-03-05T07:33:49.044Z,56.70
2024-03-05T07:36:19.150Z,65.80
2024-03-05T07:38:46.266Z,65.95
2024-03-05T07:41:21.587Z,70.15
2024-03-05T07:43:54.993Z,53.63
2024-03-05T07:46:22.076Z,67.25
2024-03-05T07:48:49.487Z,57.83
2024-03-05T07:51:23.909Z,61.08
2024-03-05T07:53:52.903Z,62.38
2024-03-05T07:56:20.089Z,62.83
2024-03-05T07:58:47.145Z,51.88
2024-03-05T08:01:15.713Z,66.78
2024-03-05T08:03:42.865Z,63.67
2024-03-05T08:06:09.980Z,59.10
2024-03-05T08:08:37.095Z,56.58
2024-03-05T08:11:04.404Z,58.70
2024-03-05T08:13:34.875Z,61.58
2024-03-05T08:16:05.390Z,65.43
2024-03-05T08:18:33.982Z,59.35
2024-03-05T08:21:03.284Z,62.05
2024-03-05T08:23:30.338Z,58.17
2024-03-05T08:25:57.532Z,55.97
2024-03-05T08:28:25.571Z,54.08
2024-03-05T08:30:55.034Z,55.78
2024-03-05T08:33:25.026Z,56.55
2024-03-05T08:35:53.884Z,53.80
2024-03-05T08:38:21.018Z,59.20
2024-03-05T08:40:50.454Z,53.97
2024-03-05T08:43:17.648Z,54.13
2024-03-05T08:45:44.732Z,53.08
2024-03-05T08:48:11.968Z,50.20
2024-03-05T08:50:40.725Z,53.13
2024-03-05T08:53:11.090Z,44.78
2024-03-05T08:55:38.360Z,53.05
2024-03-05T08:58:05.605Z,54.10
2024-03-05T09:00:42.720Z,51.28
2024-03-05T09:03:13.096Z,44.05
2024-03-05T09:05:42.300Z,42.67
2024-03-05T09:08:12.738Z,77.65
2024-03-05T09:10:40.185Z,45.17
2024-03-05T09:13:07.196Z,51.55
2024-03-05T09:15:34.235Z,45.30
2024-03-05T09:18:02.164Z,48.70
2024-03-05T09:20:29.221Z,47.25
2024-03-05T09:22:56.269Z,48.58
2024-03-05T09:25:24.878Z,45.85
2024-03-05T09:27:51.828Z,47.72
2024-03-05T09:30:20.684Z,46.28
2024-03-05T09:32:48.299Z,45.40
2024-03-05T09:35:17.021Z,42.97
2024-03-05T09:37:48.127Z,40.67
2024-03-05T09:40:19.666Z,53.00
2024-03-05T09:42:48.764Z,46.95
2024-03-05T09:45:17.728Z,51.33
2024-03-05T09:47:47.403Z,45.58
2024-03-05T09:50:15.204Z,45.00
2024-03-05T09:52:44.941Z,45.78
2024-03-05T09:55:13.460Z,44.95
2024-03-05T09:57:46.902Z,44.80
2024-03-05T10:00:19.989Z,40.10
2024-03-05T10:02:48.083Z,42.78
2024-03-05T10:05:19.901Z,38.13
2024-03-05T10:07:49.541Z,35.63
2024-03-05T10:10:20.638Z,34.40
2024-03-05T10:12:47.901Z,38.65
2024-03-05T10:15:19.774Z,33.17
2024-03-05T10:17:50.868Z,35.30
2024-03-05T10:20:28.825Z,40.53
2024-03-05T10:22:59.268Z,36.33
2024-03-05T10:25:27.890Z,33.58
2024-03-05T10:27:55.895Z,38.30
2024-03-05T10:30:26.409Z,39.88
2024-03-05T10:32:54.914Z,33.70
2024-03-05T10:35:22.680Z,36.60
2024-03-05T10:38:00.874Z,33.95
2024-03-05T10:40:33.662Z,31.40
2024-03-05T10:43:02.339Z,31.27
2024-03-05T10:45:33.303Z,35.10
2024-03-05T10:48:01.526Z,35.85
2024-03-05T10:50:29.424Z,36.63
2024-03-05T10:52:57.701Z,30.80
2024-03-05T10:55:26.010Z,32.22
2024-03-05T10:58:13.877Z,29.50
2024-03-05T11:00:45.230Z,32.05
2024-03-05T11:03:13.874Z,33.30
2024-03-05T11:05:49.275Z,29.70
2024-03-05T11:10:51.283Z,30.65
2024-03-05T11:13:19.751Z,33.50
2024-03-05T11:15:49.798Z,32.47
2024-03-05T11:18:28.630Z,37.30
2024-03-05T11:20:55.998Z,40.47
2024-03-05T11:23:30.746Z,38.53
2024-03-05T11:26:05.328Z,33.10
2024-03-05T11:28:32.868Z,43.30
2024-03-05T11:31:12.924Z,35.47
2024-03-05T11:33:42.129Z,37.50
2024-03-05T11:36:21.896Z,31.92
2024-03-05T11:39:03.930Z,32.72
2024-03-05T11:41:32.348Z,33.25
2024-03-05T11:43:59.623Z,29.98
2024-03-05T11:46:53.071Z,35.50
2024-03-05T11:49:21.431Z,43.40
2024-03-05T11:51:49.059Z,33.25
2024-03-05T11:54:21.838Z,36.05
2024-03-05T11:56:58.041Z,36.55
2024-03-05T11:59:33.927Z,30.33
2024-03-05T12:02:02.537Z,25.98
2024-03-05T12:04:29.682Z,26.50
2024-03-05T12:07:03.494Z,25.80
2024-03-05T12:09:30.580Z,24.75
2024-03-05T12:12:03.684Z,22.95
2024-03-05T12:14:32.113Z,22.73
2024-03-05T12:17:01.584Z,21.38
2024-03-05T12:19:30.101Z,22.27
2024-03-05T12:21:57.354Z,19.83
2024-03-05T12:24:24.956Z,21.17
2024-03-05T12:26:54.482Z,18.42
2024-03-05T12:29:34.940Z,22.17
2024-03-05T12:32:06.409Z,18.92
2024-03-05T12:34:35.435Z,20.20
2024-03-05T12:37:02.838Z,21.60
2024-03-05T12:39:29.802Z,40.53
2024-03-05T12:42:01.591Z,19.48
2024-03-05T12:44:31.839Z,18.65
2024-03-05T12:47:13.304Z,20.02
2024-03-05T12:49:46.304Z,19.52
2024-03-05T12:52:18.429Z,15.57
2024-03-05T12:54:46.444Z,20.35
2024-03-05T12:57:24.287Z,15.23
2024-03-05T12:59:51.298Z,21.00
2024-03-05T13:02:18.754Z,16.63
2024-03-05T13:04:47.682Z,15.25
2024-03-05T13:07:15.477Z,20.10
2024-03-05T13:09:42.601Z,15.35
2024-03-05T13:12:09.891Z,14.73
2024-03-05T13:14:37.394Z,15.85
2024-03-05T13:17:11.251Z,19.25
2024-03-05T13:19:38.563Z,10.40
2024-03-05T13:22:07.238Z,16.25
2024-03-05T13:24:35.396Z,21.63
2024-03-05T13:27:04.144Z,14.35
2024-03-05T13:29:31.242Z,8.88
2024-03-05T13:32:00.452Z,9.57
2024-03-05T13:34:28.675Z,10.95
2024-03-05T13:36:55.873Z,9.90
2024-03-05T13:39:24.702Z,10.40
2024-03-05T13:41:54.824Z,9.73
2024-03-05T13:44:24.201Z,12.60
2024-03-05T13:46:52.763Z,13.45
2024-03-05T13:49:25.248Z,9.32
2024-03-05T13:51:52.752Z,9.73
2024-03-05T13:54:20.346Z,13.15
2024-03-05T13:56:50.188Z,9.35
2024-03-05T13:59:17.109Z,8.80
2024-03-05T14:01:44.118Z,7.97
2024-03-05T14:04:11.598Z,16.05
2024-03-05T14:06:42.373Z,9.30
2024-03-05T14:09:12.446Z,15.20
2024-03-05T14:11:42.285Z,17.95
2024-03-05T14:14:17.898Z,21.10
2024-03-05T14:16:44.955Z,17.73
2024-03-05T14:19:12.000Z,7.07
2024-03-05T14:21:38.961Z,9.40
2024-03-05T14:24:09.256Z,13.95
2024-03-05T14:26:36.230Z,9.27
2024-03-05T14:29:05.200Z,8.77
2024-03-05T14:31:34.645Z,12.65
2024-03-05T14:34:01.957Z,14.95
2024-03-05T14:36:29.063Z,10.00
2024-03-05T14:38:56.049Z,11.52
2024-03-05T14:41:23.834Z,13.80
2024-03-05T14:43:51.611Z,14.15
2024-03-05T14:46:18.881Z,9.80
2024-03-05T14:48:47.667Z,10.48
2024-03-05T14:51:14.730Z,12.95
2024-03-05T14:53:41.957Z,17.17
2024-03-05T14:56:09.107Z,10.27
2024-03-05T14:58:36.669Z,9.50
2024-03-05T15:01:04.009Z,16.63
2024-03-05T15:03:33.254Z,13.85
2024-03-05T15:06:03.380Z,10.05
2024-03-05T15:08:30.617Z,12.88
2024-03-05T15:10:57.965Z,20.70
2024-03-05T15:13:25.146Z,10.70
2024-03-05T15:15:52.453Z,13.90
2024-03-05T15:18:21.346Z,16.67
2024-03-05T15:20:48.493Z,17.85
2024-03-05T15:23:20.379Z,13.57
2024-03-05T15:25:48.828Z,12.77
2024-03-05T15:28:15.845Z,16.15
2024-03-05T15:30:42.793Z,24.02
2024-03-05T15:33:11.136Z,16.90
2024-03-05T15:35:38.144Z,23.77
2024-03-05T15:38:09.022Z,12.00
2024-03-05T15:40:39.042Z,12.90
2024-03-05T15:43:08.282Z,13.95
2024-03-05T15:45:38.384Z,8.95
2024-03-05T15:48:09.237Z,11.32
2024-03-05T15:50:37.384Z,12.80
2024-03-05T15:53:05.068Z,10.48
2024-03-05T15:55:33.405Z,11.93
2024-03-05T15:58:02.035Z,8.88
2024-03-05T16:00:30.537Z,9.13
2024-03-05T16:03:01.131Z,14.15
2024-03-05T16:05:34.966Z,15.82
2024-03-05T16:08:08.505Z,17.65
2024-03-05T16:10:44.833Z,20.92
2024-03-05T16:13:17.696Z,20.92
2024-03-05T16:15:47.580Z,22.83
2024-03-05T16:18:15.340Z,13.52
2024-03-05T16:20:42.413Z,16.15
2024-03-05T16:23:10.620Z,15.68
2024-03-05T16:25:42.214Z,12.13
2024-03-05T16:28:15.358Z,12.07
2024-03-05T16:30:43.995Z,15.93
2024-03-05T16:33:14.822Z,16.80
2024-03-05T16:35:42.149Z,9.05
2024-03-05T16:38:10.454Z,10.60
2024-03-05T16:40:39.494Z,10.45
2024-03-05T16:43:08.083Z,10.25
2024-03-05T16:45:36.593Z,12.73
2024-03-05T16:48:08.593Z,14.82
2024-03-05T16:50:35.741Z,9.73
2024-03-05T16:53:02.930Z,17.67
2024-03-05T16:55:30.376Z,11.07
2024-03-05T16:58:00.250Z,15.63
2024-03-05T17:00:57.656Z,12.40
2024-03-05T17:03:30.010Z,12.82
2024-03-05T17:05:58.386Z,10.35
2024-03-05T17:08:26.628Z,12.82
2024-03-05T17:10:55.265Z,11.02
2024-03-05T17:13:24.431Z,12.07
2024-03-05T17:16:00.440Z,11.70
2024-03-05T17:18:31.839Z,10.70
2024-03-05T17:20:59.649Z,10.35
2024-03-05T17:23:28.005Z,11.73
2024-03-05T17:25:57.245Z,13.65
2024-03-05T17:28:27.087Z,20.90
2024-03-05T17:30:54.670Z,11.43
2024-03-05T17:33:22.414Z,8.45
2024-03-05T17:35:52.823Z,10.95
2024-03-05T17:38:20.274Z,10.77
2024-03-05T17:40:49.411Z,11.43
2024-03-05T17:43:16.385Z,14.27
2024-03-05T17:45:47.413Z,12.30
2024-03-05T17:48:14.591Z,14.65
2024-03-05T17:50:42.502Z,12.38
2024-03-05T17:53:11.187Z,10.05
2024-03-05T17:55:39.583Z,21.08
2024-03-05T17:58:06.616Z,36.45
2024-03-05T18:00:45.931Z,44.60
2024-03-05T18:03:15.257Z,42.22
2024-03-05T18:05:46.512Z,47.65
2024-03-05T18:08:16.788Z,47.78
2024-03-05T18:10:44.254Z,61.70
2024-03-05T18:13:16.029Z,56.70
2024-03-05T18:15:46.196Z,46.47
2024-03-05T18:18:15.481Z,54.53
2024-03-05T18:20:45.036Z,49.40
2024-03-05T18:23:13.064Z,54.10
2024-03-05T18:25:45.011Z,48.22
2024-03-05T18:28:12.168Z,57.38
2024-03-05T18:30:40.107Z,53.38
2024-03-05T18:33:09.752Z,60.05
2024-03-05T18:35:37.879Z,47.83
2024-03-05T18:40:41.601Z,55.28
2024-03-05T18:43:11.326Z,48.95
2024-03-05T18:45:38.735Z,53.05
2024-03-05T18:48:10.164Z,59.03
2024-03-05T18:50:38.798Z,53.65
2024-03-05T18:53:07.658Z,52.00
2024-03-05T18:55:37.649Z,51.45
2024-03-05T18:58:09.106Z,50.65
2024-03-05T19:00:38.154Z,44.65
2024-03-05T19:03:06.399Z,46.58
2024-03-05T19:05:34.909Z,53.63
2024-03-05T19:08:02.707Z,42.00
2024-03-05T19:10:31.517Z,53.10
2024-03-05T19:12:59.689Z,50.95
2024-03-05T19:15:29.766Z,50.33
2024-03-05T19:17:58.542Z,50.65
2024-03-05T19:20:26.784Z,54.00
2024-03-05T19:22:54.257Z,50.35
2024-03-05T19:25:23.356Z,49.70
2024-03-05T19:27:50.540Z,54.67
2024-03-05T19:30:18.542Z,48.25
2024-03-05T19:32:48.010Z,47.13
2024-03-05T19:35:17.728Z,44.60
2024-03-05T19:37:46.825Z,47.63
2024-03-05T19:40:18.963Z,47.05
2024-03-05T19:42:47.303Z,52.78
2024-03-05T19:45:14.903Z,49.85
2024-03-05T19:47:42.755Z,49.97
2024-03-05T19:50:14.913Z,50.13
2024-03-05T19:52:42.793Z,49.33
2024-03-05T19:55:10.698Z,47.33
2024-03-05T19:57:38.308Z,47.78
2024-03-05T20:00:13.227Z,50.60
2024-03-05T20:02:40.619Z,48.42
2024-03-05T20:05:08.552Z,45.88
2024-03-05T20:07:37.114Z,50.63
2024-03-05T20:10:04.845Z,43.67
2024-03-05T20:12:32.570Z,51.70
2024-03-05T20:15:00.087Z,45.20
2024-03-05T20:17:27.844Z,45.28
2024-03-05T20:19:55.165Z,44.33
2024-03-05T20:22:25.855Z,46.65
2024-03-05T20:24:59.874Z,48.28
2024-03-05T20:27:31.903Z,41.58
2024-03-05T20:30:00.959Z,42.25
2024-03-05T20:32:31.634Z,48.20
2024-03-05T20:34:58.886Z,45.88
2024-03-05T20:37:26.040Z,45.08
2024-03-05T20:39:57.302Z,59.00
2024-03-05T20:42:24.346Z,48.78
2024-03-05T20:44:51.402Z,63.08
2024-03-05T20:47:18.527Z,46.75
2024-03-05T20:49:46.704Z,53.08
2024-03-05T20:52:13.910Z,46.13
2024-03-05T20:54:40.893Z,34.13
2024-03-05T20:57:09.640Z,29.65
2024-03-05T20:59:36.564Z,69.78
2024-03-05T21:02:10.042Z,133.90
2024-03-05T21:04:38.493Z,60.85
2024-03-05T21:07:06.242Z,26.25
2024-03-05T21:09:34.307Z,24.42
2024-03-05T21:12:01.591Z,26.42
2024-03-05T21:14:30.058Z,31.60
2024-03-05T21:16:57.088Z,27.15
2024-03-05T21:19:27.735Z,27.42
2024-03-05T21:21:54.803Z,31.88
2024-03-05T21:24:24.442Z,31.63
2024-03-05T21:29:22.646Z,35.33
2024-03-05T21:31:52.172Z,42.80
2024-03-05T21:34:19.847Z,40.97
2024-03-05T21:36:46.805Z,41.72
2024-03-05T21:39:15.404Z,41.72
2024-03-05T21:41:43.351Z,46.08
2024-03-05T21:44:10.435Z,44.42
2024-03-05T21:46:38.297Z,38.80
2024-03-05T21:49:06.994Z,44.10
2024-03-05T21:51:34.185Z,40.65
2024-03-05T21:54:01.213Z,49.03
2024-03-05T21:56:28.396Z,44.42
2024-03-05T21:58:55.522Z,47.92
2024-03-05T22:01:23.185Z,51.63
2024-03-05T22:03:50.195Z,47.70
2024-03-05T22:06:24.253Z,49.13
2024-03-05T22:08:52.122Z,51.08
2024-03-05T22:11:19.278Z,53.83
2024-03-05T22:13:46.561Z,55.90
2024-03-05T22:16:13.547Z,45.08
2024-03-05T22:18:40.669Z,53.85
2024-03-05T22:21:07.860Z,51.97
2024-03-05T22:23:36.548Z,47.55
2024-03-05T22:26:03.817Z,50.10
2024-03-05T22:28:31.430Z,38.10
2024-03-05T22:30:59.400Z,40.80
2024-03-05T22:33:26.627Z,40.88
2024-03-05T22:35:53.613Z,46.72
2024-03-05T22:38:21.780Z,38.10
2024-03-05T22:40:50.208Z,36.03
2024-03-05T22:43:17.613Z,41.75
2024-03-05T22:45:44.698Z,39.35
2024-03-05T22:48:12.339Z,38.60
2024-03-05T22:50:39.483Z,31.08
2024-03-05T22:53:06.568Z,30.10
2024-03-05T22:55:33.621Z,32.92
2024-03-05T22:58:04.294Z,27.27
2024-03-05T23:00:40.328Z,27.25
2024-03-05T23:03:07.644Z,29.98
2024-03-05T23:05:34.688Z,34.33
2024-03-05T23:08:01.907Z,30.98
2024-03-05T23:10:29.582Z,30.50
2024-03-05T23:13:00.384Z,30.00
2024-03-05T23:15:29.053Z,27.50
2024-03-05T23:17:56.261Z,24.85
2024-03-05T23:20:23.515Z,28.73
2024-03-05T23:22:50.702Z,24.30
2024-03-05T23:25:18.476Z,24.02
2024-03-05T23:27:49.156Z,27.63
2024-03-05T23:30:20.208Z,28.63
2024-03-05T23:32:53.914Z,29.92
2024-03-05T23:35:21.676Z,35.80
2024-03-05T23:37:48.748Z,27.13
2024-03-05T23:40:15.813Z,29.38
2024-03-05T23:42:42.804Z,25.08
2024-03-05T23:45:10.779Z,35.05
2024-03-05T23:47:38.145Z,26.73
2024-03-05T23:50:10.368Z,28.42
2024-03-05T23:52:37.968Z,29.48
2024-03-05T23:55:07.186Z,34.53
2024-03-05T23:57:34.479Z,36.67
